sensor_id;sensor_type;location;lat;lon;timestamp;temperature;humidity
33739;DHT22;20063;51.730;11.110;2023-04-06T00:01:26;3.70;99.90
33739;DHT22;20063;51.730;11.110;2023-04-06T00:03:52;3.70;99.90
33739;DHT22;20063;51.730;11.110;2023-04-06T00:06:17;3.70;99.90
33739;DHT22;20063;51.730;11.110;2023-04-06T00:08:43;3.70;99.90
33739;DHT22;20063;51.730;11.110;2023-04-06T00:11:09;3.70;99.90
33739;DHT22;20063;51.730;11.110;2023-04-06T00:13:35;3.60;99.90
33739;DHT22;20063;51.730;11.110;2023-04-06T00:16:01;3.70;99.90
33739;DHT22;20063;51.730;11.110;2023-04-06T00:18:27;3.70;99.90
33739;DHT22;20063;51.730;11.110;2023-04-06T00:20:53;3.70;99.90
33739;DHT22;20063;51.730;11.110;2023-04-06T00:23:19;3.70;99.90
33739;DHT22;20063;51.730;11.110;2023-04-06T00:25:45;3.70;99.90
33739;DHT22;20063;51.730;11.110;2023-04-06T00:28:12;3.70;99.90
33739;DHT22;20063;51.730;11.110;2023-04-06T00:30:38;3.70;99.90
33739;DHT22;20063;51.730;11.110;2023-04-06T00:33:03;3.70;99.90
33739;DHT22;20063;51.730;11.110;2023-04-06T00:35:29;3.70;99.90
33739;DHT22;20063;51.730;11.110;2023-04-06T00:37:55;3.70;99.90
33739;DHT22;20063;51.730;11.110;2023-04-06T00:40:20;3.70;99.90
33739;DHT22;20063;51.730;11.110;2023-04-06T00:42:46;3.70;99.90
33739;DHT22;20063;51.730;11.110;2023-04-06T00:45:12;3.70;99.90
33739;DHT22;20063;51.730;11.110;2023-04-06T00:47:38;3.70;99.90
33739;DHT22;20063;51.730;11.110;2023-04-06T00:50:05;3.70;99.90
33739;DHT22;20063;51.730;11.110;2023-04-06T00:52:30;3.60;99.90
33739;DHT22;20063;51.730;11.110;2023-04-06T00:54:56;3.60;99.90
33739;DHT22;20063;51.730;11.110;2023-04-06T00:57:22;3.60;99.90
33739;DHT22;20063;51.730;11.110;2023-04-06T00:59:47;3.60;99.90
33739;DHT22;20063;51.730;11.110;2023-04-06T01:02:13;3.60;99.90
33739;DHT22;20063;51.730;11.110;2023-04-06T01:04:38;3.60;99.90
33739;DHT22;20063;51.730;11.110;2023-04-06T01:07:04;3.60;99.90
33739;DHT22;20063;51.730;11.110;2023-04-06T01:09:30;3.60;99.90
33739;DHT22;20063;51.730;11.110;2023-04-06T01:11:57;3.60;99.90
33739;DHT22;20063;51.730;11.110;2023-04-06T01:14:23;3.60;99.90
33739;DHT22;20063;51.730;11.110;2023-04-06T01:16:52;3.60;99.90
33739;DHT22;20063;51.730;11.110;2023-04-06T01:19:18;3.50;99.90
33739;DHT22;20063;51.730;11.110;2023-04-06T01:21:43;3.50;99.90
33739;DHT22;20063;51.730;11.110;2023-04-06T01:24:09;3.50;99.90
33739;DHT22;20063;51.730;11.110;2023-04-06T01:26:35;3.40;99.90
33739;DHT22;20063;51.730;11.110;2023-04-06T01:29:02;3.40;99.90
33739;DHT22;20063;51.730;11.110;2023-04-06T01:31:28;3.40;99.90
33739;DHT22;20063;51.730;11.110;2023-04-06T01:33:54;3.40;99.90
33739;DHT22;20063;51.730;11.110;2023-04-06T01:36:20;3.40;99.90
33739;DHT22;20063;51.730;11.110;2023-04-06T01:38:46;3.40;99.90
33739;DHT22;20063;51.730;11.110;2023-04-06T01:41:11;3.50;99.90
33739;DHT22;20063;51.730;11.110;2023-04-06T01:43:37;3.40;99.90
33739;DHT22;20063;51.730;11.110;2023-04-06T01:46:03;3.40;99.90
33739;DHT22;20063;51.730;11.110;2023-04-06T01:48:29;3.40;99.90
33739;DHT22;20063;51.730;11.110;2023-04-06T01:50:55;3.40;99.90
33739;DHT22;20063;51.730;11.110;2023-04-06T01:53:21;3.40;99.90
33739;DHT22;20063;51.730;11.110;2023-04-06T01:55:47;3.40;99.90
33739;DHT22;20063;51.730;11.110;2023-04-06T01:58:13;3.50;99.90
33739;DHT22;20063;51.730;11.110;2023-04-06T02:00:39;3.50;99.90
33739;DHT22;20063;51.730;11.110;2023-04-06T02:03:05;3.50;99.90
33739;DHT22;20063;51.730;11.110;2023-04-06T02:05:32;3.40;99.90
33739;DHT22;20063;51.730;11.110;2023-04-06T02:08:05;3.40;99.90
33739;DHT22;20063;51.730;11.110;2023-04-06T02:13:52;3.40;99.90
33739;DHT22;20063;51.730;11.110;2023-04-06T02:16:18;3.40;99.90
33739;DHT22;20063;51.730;11.110;2023-04-06T02:18:43;3.40;99.90
33739;DHT22;20063;51.730;11.110;2023-04-06T02:21:09;3.30;99.90
33739;DHT22;20063;51.730;11.110;2023-04-06T02:23:35;3.30;99.90
33739;DHT22;20063;51.730;11.110;2023-04-06T02:26:00;3.30;99.90
33739;DHT22;20063;51.730;11.110;2023-04-06T02:28:26;3.30;99.90
33739;DHT22;20063;51.730;11.110;2023-04-06T02:30:51;3.30;99.90
33739;DHT22;20063;51.730;11.110;2023-04-06T02:33:17;3.30;99.90
33739;DHT22;20063;51.730;11.110;2023-04-06T02:35:44;3.30;99.90
33739;DHT22;20063;51.730;11.110;2023-04-06T02:38:10;3.30;99.90
33739;DHT22;20063;51.730;11.110;2023-04-06T02:40:35;3.30;99.90
33739;DHT22;20063;51.730;11.110;2023-04-06T02:43:01;3.30;99.90
33739;DHT22;20063;51.730;11.110;2023-04-06T02:45:27;3.30;99.90
33739;DHT22;20063;51.730;11.110;2023-04-06T02:47:52;3.30;99.90
33739;DHT22;20063;51.730;11.110;2023-04-06T02:50:18;3.30;99.90
33739;DHT22;20063;51.730;11.110;2023-04-06T02:52:46;3.30;99.90
33739;DHT22;20063;51.730;11.110;2023-04-06T02:55:12;3.30;99.90
33739;DHT22;20063;51.730;11.110;2023-04-06T02:57:38;3.30;99.90
33739;DHT22;20063;51.730;11.110;2023-04-06T03:00:04;3.30;99.90
33739;DHT22;20063;51.730;11.110;2023-04-06T03:02:29;3.30;99.90
33739;DHT22;20063;51.730;11.110;2023-04-06T03:04:55;3.30;99.90
33739;DHT22;20063;51.730;11.110;2023-04-06T03:07:21;3.30;99.90
33739;DHT22;20063;51.730;11.110;2023-04-06T03:09:47;3.20;99.90
33739;DHT22;20063;51.730;11.110;2023-04-06T03:12:13;3.20;99.90
33739;DHT22;20063;51.730;11.110;2023-04-06T03:14:38;3.30;99.90
33739;DHT22;20063;51.730;11.110;2023-04-06T03:17:04;3.30;99.90
33739;DHT22;20063;51.730;11.110;2023-04-06T03:19:30;3.40;99.90
33739;DHT22;20063;51.730;11.110;2023-04-06T03:21:55;3.30;99.90
33739;DHT22;20063;51.730;11.110;2023-04-06T03:24:21;3.30;99.90
33739;DHT22;20063;51.730;11.110;2023-04-06T03:26:47;3.40;99.90
33739;DHT22;20063;51.730;11.110;2023-04-06T03:29:12;3.40;99.90
33739;DHT22;20063;51.730;11.110;2023-04-06T03:31:39;3.30;99.90
33739;DHT22;20063;51.730;11.110;2023-04-06T03:34:04;3.30;99.90
33739;DHT22;20063;51.730;11.110;2023-04-06T03:36:30;3.30;99.90
33739;DHT22;20063;51.730;11.110;2023-04-06T03:38:56;3.30;99.90
33739;DHT22;20063;51.730;11.110;2023-04-06T03:41:21;3.40;99.90
33739;DHT22;20063;51.730;11.110;2023-04-06T03:43:47;3.40;99.90
33739;DHT22;20063;51.730;11.110;2023-04-06T03:46:16;3.30;99.90
33739;DHT22;20063;51.730;11.110;2023-04-06T03:48:41;3.30;99.90
33739;DHT22;20063;51.730;11.110;2023-04-06T03:51:07;3.30;99.90
33739;DHT22;20063;51.730;11.110;2023-04-06T03:53:32;3.30;99.90
33739;DHT22;20063;51.730;11.110;2023-04-06T03:55:58;3.30;99.90
33739;DHT22;20063;51.730;11.110;2023-04-06T03:58:26;3.30;99.90
33739;DHT22;20063;51.730;11.110;2023-04-06T04:00:52;3.20;99.90
33739;DHT22;20063;51.730;11.110;2023-04-06T04:03:17;3.20;99.90
33739;DHT22;20063;51.730;11.110;2023-04-06T04:05:43;3.20;99.90
33739;DHT22;20063;51.730;11.110;2023-04-06T04:08:08;3.20;99.90
33739;DHT22;20063;51.730;11.110;2023-04-06T04:10:37;3.10;99.90
33739;DHT22;20063;51.730;11.110;2023-04-06T04:13:02;3.10;99.90
33739;DHT22;20063;51.730;11.110;2023-04-06T04:15:28;3.00;99.90
33739;DHT22;20063;51.730;11.110;2023-04-06T04:17:54;2.90;99.90
33739;DHT22;20063;51.730;11.110;2023-04-06T04:20:20;2.80;99.90
33739;DHT22;20063;51.730;11.110;2023-04-06T04:22:46;2.70;99.90
33739;DHT22;20063;51.730;11.110;2023-04-06T04:25:12;2.60;99.90
33739;DHT22;20063;51.730;11.110;2023-04-06T04:27:38;2.50;99.90
33739;DHT22;20063;51.730;11.110;2023-04-06T04:30:05;2.40;99.90
33739;DHT22;20063;51.730;11.110;2023-04-06T04:32:31;2.30;99.90
33739;DHT22;20063;51.730;11.110;2023-04-06T04:34:56;2.20;99.90
33739;DHT22;20063;51.730;11.110;2023-04-06T04:37:22;2.20;99.90
33739;DHT22;20063;51.730;11.110;2023-04-06T04:39:47;2.30;99.90
33739;DHT22;20063;51.730;11.110;2023-04-06T04:42:13;2.30;99.90
33739;DHT22;20063;51.730;11.110;2023-04-06T04:44:39;2.40;99.90
33739;DHT22;20063;51.730;11.110;2023-04-06T04:47:05;2.40;99.90
33739;DHT22;20063;51.730;11.110;2023-04-06T04:49:30;2.40;99.90
33739;DHT22;20063;51.730;11.110;2023-04-06T04:51:56;2.30;99.90
33739;DHT22;20063;51.730;11.110;2023-04-06T04:54:21;2.40;99.90
33739;DHT22;20063;51.730;11.110;2023-04-06T04:56:47;2.30;99.90
33739;DHT22;20063;51.730;11.110;2023-04-06T04:59:13;2.20;99.90
33739;DHT22;20063;51.730;11.110;2023-04-06T05:01:38;2.20;99.90
33739;DHT22;20063;51.730;11.110;2023-04-06T05:04:04;2.10;99.90
33739;DHT22;20063;51.730;11.110;2023-04-06T05:06:30;2.00;99.90
33739;DHT22;20063;51.730;11.110;2023-04-06T05:08:55;1.90;99.90
33739;DHT22;20063;51.730;11.110;2023-04-06T05:11:21;1.90;99.90
33739;DHT22;20063;51.730;11.110;2023-04-06T05:13:48;1.90;99.90
33739;DHT22;20063;51.730;11.110;2023-04-06T05:16:15;1.90;99.90
33739;DHT22;20063;51.730;11.110;2023-04-06T05:18:40;1.80;99.90
33739;DHT22;20063;51.730;11.110;2023-04-06T05:21:06;1.90;99.90
33739;DHT22;20063;51.730;11.110;2023-04-06T05:23:32;1.80;99.90
33739;DHT22;20063;51.730;11.110;2023-04-06T05:25:57;1.80;99.90
33739;DHT22;20063;51.730;11.110;2023-04-06T05:28:23;1.80;99.90
33739;DHT22;20063;51.730;11.110;2023-04-06T05:30:52;1.80;99.90
33739;DHT22;20063;51.730;11.110;2023-04-06T05:33:18;1.80;99.90
33739;DHT22;20063;51.730;11.110;2023-04-06T05:35:44;1.80;99.90
33739;DHT22;20063;51.730;11.110;2023-04-06T05:38:09;1.80;99.90
33739;DHT22;20063;51.730;11.110;2023-04-06T05:40:36;1.90;99.90
33739;DHT22;20063;51.730;11.110;2023-04-06T05:43:06;1.90;99.90
33739;DHT22;20063;51.730;11.110;2023-04-06T05:45:32;1.90;99.90
33739;DHT22;20063;51.730;11.110;2023-04-06T05:47:58;2.00;99.90
33739;DHT22;20063;51.730;11.110;2023-04-06T05:50:23;2.00;99.90
33739;DHT22;20063;51.730;11.110;2023-04-06T05:52:49;2.10;99.90
33739;DHT22;20063;51.730;11.110;2023-04-06T05:55:15;2.10;99.90
33739;DHT22;20063;51.730;11.110;2023-04-06T05:57:40;2.10;99.90
33739;DHT22;20063;51.730;11.110;2023-04-06T06:00:06;2.30;99.90
33739;DHT22;20063;51.730;11.110;2023-04-06T06:02:35;2.30;99.90
33739;DHT22;20063;51.730;11.110;2023-04-06T06:05:01;2.50;99.90
33739;DHT22;20063;51.730;11.110;2023-04-06T06:07:27;2.50;99.90
33739;DHT22;20063;51.730;11.110;2023-04-06T06:09:52;2.60;99.90
33739;DHT22;20063;51.730;11.110;2023-04-06T06:12:18;2.60;99.90
33739;DHT22;20063;51.730;11.110;2023-04-06T06:14:44;2.60;99.90
33739;DHT22;20063;51.730;11.110;2023-04-06T06:17:10;2.70;99.90
33739;DHT22;20063;51.730;11.110;2023-04-06T06:19:35;2.70;99.90
33739;DHT22;20063;51.730;11.110;2023-04-06T06:22:01;2.70;99.90
33739;DHT22;20063;51.730;11.110;2023-04-06T06:24:48;2.80;99.90
33739;DHT22;20063;51.730;11.110;2023-04-06T06:27:15;2.90;99.90
33739;DHT22;20063;51.730;11.110;2023-04-06T06:29:41;2.90;99.90
33739;DHT22;20063;51.730;11.110;2023-04-06T06:32:07;3.00;99.90
33739;DHT22;20063;51.730;11.110;2023-04-06T06:34:34;3.00;99.90
33739;DHT22;20063;51.730;11.110;2023-04-06T06:37:00;3.10;99.90
33739;DHT22;20063;51.730;11.110;2023-04-06T06:39:27;3.10;99.90
33739;DHT22;20063;51.730;11.110;2023-04-06T06:41:53;3.20;99.90
33739;DHT22;20063;51.730;11.110;2023-04-06T06:44:20;3.20;99.90
33739;DHT22;20063;51.730;11.110;2023-04-06T06:46:47;3.20;99.90
33739;DHT22;20063;51.730;11.110;2023-04-06T06:49:13;3.20;99.90
33739;DHT22;20063;51.730;11.110;2023-04-06T06:51:40;3.20;99.90
33739;DHT22;20063;51.730;11.110;2023-04-06T06:54:06;3.30;99.90
33739;DHT22;20063;51.730;11.110;2023-04-06T06:56:32;3.30;99.90
33739;DHT22;20063;51.730;11.110;2023-04-06T06:58:58;3.40;99.90
33739;DHT22;20063;51.730;11.110;2023-04-06T07:01:23;3.40;99.90
33739;DHT22;20063;51.730;11.110;2023-04-06T07:03:49;3.50;99.90
33739;DHT22;20063;51.730;11.110;2023-04-06T07:06:14;3.60;99.90
33739;DHT22;20063;51.730;11.110;2023-04-06T07:08:40;3.60;99.90
33739;DHT22;20063;51.730;11.110;2023-04-06T07:11:06;3.60;99.90
33739;DHT22;20063;51.730;11.110;2023-04-06T07:13:31;3.70;99.90
33739;DHT22;20063;51.730;11.110;2023-04-06T07:15:57;3.70;99.90
33739;DHT22;20063;51.730;11.110;2023-04-06T07:18:22;3.70;99.90
33739;DHT22;20063;51.730;11.110;2023-04-06T07:20:48;3.80;99.90
33739;DHT22;20063;51.730;11.110;2023-04-06T07:23:13;3.90;99.90
33739;DHT22;20063;51.730;11.110;2023-04-06T07:25:40;4.00;99.90
33739;DHT22;20063;51.730;11.110;2023-04-06T07:28:06;4.00;99.90
33739;DHT22;20063;51.730;11.110;2023-04-06T07:30:31;4.10;99.90
33739;DHT22;20063;51.730;11.110;2023-04-06T07:32:57;4.20;99.90
33739;DHT22;20063;51.730;11.110;2023-04-06T07:35:26;4.40;99.90
33739;DHT22;20063;51.730;11.110;2023-04-06T07:37:55;4.50;99.90
33739;DHT22;20063;51.730;11.110;2023-04-06T07:40:21;4.50;99.90
33739;DHT22;20063;51.730;11.110;2023-04-06T07:42:47;4.60;99.90
33739;DHT22;20063;51.730;11.110;2023-04-06T07:45:12;4.70;99.90
33739;DHT22;20063;51.730;11.110;2023-04-06T07:47:38;4.70;99.90
33739;DHT22;20063;51.730;11.110;2023-04-06T07:50:04;4.70;99.90
33739;DHT22;20063;51.730;11.110;2023-04-06T07:52:30;4.80;99.90
33739;DHT22;20063;51.730;11.110;2023-04-06T07:54:58;4.80;99.90
33739;DHT22;20063;51.730;11.110;2023-04-06T07:57:23;4.90;99.90
33739;DHT22;20063;51.730;11.110;2023-04-06T07:59:49;4.90;99.90
33739;DHT22;20063;51.730;11.110;2023-04-06T08:02:15;5.00;99.90
33739;DHT22;20063;51.730;11.110;2023-04-06T08:04:40;5.10;99.90
33739;DHT22;20063;51.730;11.110;2023-04-06T08:07:06;5.10;99.90
33739;DHT22;20063;51.730;11.110;2023-04-06T08:09:32;5.10;99.90
33739;DHT22;20063;51.730;11.110;2023-04-06T08:11:57;5.10;99.90
33739;DHT22;20063;51.730;11.110;2023-04-06T08:14:25;5.20;99.90
33739;DHT22;20063;51.730;11.110;2023-04-06T08:16:50;5.20;99.90
33739;DHT22;20063;51.730;11.110;2023-04-06T08:19:16;5.40;99.90
33739;DHT22;20063;51.730;11.110;2023-04-06T08:21:45;5.50;99.90
33739;DHT22;20063;51.730;11.110;2023-04-06T08:24:12;5.50;99.90
33739;DHT22;20063;51.730;11.110;2023-04-06T08:26:37;5.60;99.90
33739;DHT22;20063;51.730;11.110;2023-04-06T08:29:03;5.80;99.90
33739;DHT22;20063;51.730;11.110;2023-04-06T08:31:30;5.90;99.90
33739;DHT22;20063;51.730;11.110;2023-04-06T08:33:55;5.90;99.90
33739;DHT22;20063;51.730;11.110;2023-04-06T08:36:21;6.00;99.90
33739;DHT22;20063;51.730;11.110;2023-04-06T08:38:49;6.00;99.90
33739;DHT22;20063;51.730;11.110;2023-04-06T08:41:16;6.10;99.90
33739;DHT22;20063;51.730;11.110;2023-04-06T08:43:48;6.20;99.90
33739;DHT22;20063;51.730;11.110;2023-04-06T08:46:18;6.30;99.90
33739;DHT22;20063;51.730;11.110;2023-04-06T08:48:43;6.40;99.90
33739;DHT22;20063;51.730;11.110;2023-04-06T08:51:11;6.50;99.90
33739;DHT22;20063;51.730;11.110;2023-04-06T08:53:37;6.80;99.90
33739;DHT22;20063;51.730;11.110;2023-04-06T08:56:04;7.10;99.90
33739;DHT22;20063;51.730;11.110;2023-04-06T08:58:38;7.30;96.90
33739;DHT22;20063;51.730;11.110;2023-04-06T09:01:07;7.50;99.50
33739;DHT22;20063;51.730;11.110;2023-04-06T09:03:37;7.70;93.10
33739;DHT22;20063;51.730;11.110;2023-04-06T09:06:07;7.80;93.20
33739;DHT22;20063;51.730;11.110;2023-04-06T09:08:34;7.90;90.60
33739;DHT22;20063;51.730;11.110;2023-04-06T09:11:01;8.00;90.60
33739;DHT22;20063;51.730;11.110;2023-04-06T09:13:27;8.10;77.00
33739;DHT22;20063;51.730;11.110;2023-04-06T09:16:03;8.20;77.50
33739;DHT22;20063;51.730;11.110;2023-04-06T09:18:32;8.20;90.40
33739;DHT22;20063;51.730;11.110;2023-04-06T09:21:05;8.30;72.20
33739;DHT22;20063;51.730;11.110;2023-04-06T09:23:33;8.30;78.00
33739;DHT22;20063;51.730;11.110;2023-04-06T09:26:16;8.40;77.50
33739;DHT22;20063;51.730;11.110;2023-04-06T09:28:58;8.30;81.30
33739;DHT22;20063;51.730;11.110;2023-04-06T09:31:27;8.30;89.60
33739;DHT22;20063;51.730;11.110;2023-04-06T09:33:54;8.40;83.00
33739;DHT22;20063;51.730;11.110;2023-04-06T09:36:28;8.50;69.00
33739;DHT22;20063;51.730;11.110;2023-04-06T09:38:57;8.50;70.90
33739;DHT22;20063;51.730;11.110;2023-04-06T09:41:28;8.60;69.40
33739;DHT22;20063;51.730;11.110;2023-04-06T09:44:10;8.60;65.70
33739;DHT22;20063;51.730;11.110;2023-04-06T09:46:36;8.40;75.90
33739;DHT22;20063;51.730;11.110;2023-04-06T09:49:03;8.40;87.60
33739;DHT22;20063;51.730;11.110;2023-04-06T09:52:13;8.50;81.60
33739;DHT22;20063;51.730;11.110;2023-04-06T09:54:38;8.70;67.40
33739;DHT22;20063;51.730;11.110;2023-04-06T10:00:11;8.80;63.90
33739;DHT22;20063;51.730;11.110;2023-04-06T10:02:59;8.80;67.40
33739;DHT22;20063;51.730;11.110;2023-04-06T10:05:37;8.80;66.50
33739;DHT22;20063;51.730;11.110;2023-04-06T10:08:08;8.90;61.90
33739;DHT22;20063;51.730;11.110;2023-04-06T10:10:35;9.00;61.20
33739;DHT22;20063;51.730;11.110;2023-04-06T10:13:01;9.00;63.60
33739;DHT22;20063;51.730;11.110;2023-04-06T10:15:28;9.10;59.30
33739;DHT22;20063;51.730;11.110;2023-04-06T10:17:55;9.10;61.90
33739;DHT22;20063;51.730;11.110;2023-04-06T10:20:29;9.20;67.50
33739;DHT22;20063;51.730;11.110;2023-04-06T10:23:41;9.30;62.10
33739;DHT22;20063;51.730;11.110;2023-04-06T10:25:57;9.30;57.70
33739;DHT22;20063;51.730;11.110;2023-04-06T10:28:24;9.30;57.40
33739;DHT22;20063;51.730;11.110;2023-04-06T10:31:01;9.30;63.70
33739;DHT22;20063;51.730;11.110;2023-04-06T10:33:27;9.50;58.90
33739;DHT22;20063;51.730;11.110;2023-04-06T10:35:53;9.50;60.70
33739;DHT22;20063;51.730;11.110;2023-04-06T10:38:20;9.50;56.70
33739;DHT22;20063;51.730;11.110;2023-04-06T10:40:48;9.70;59.50
33739;DHT22;20063;51.730;11.110;2023-04-06T10:43:19;9.70;57.10
33739;DHT22;20063;51.730;11.110;2023-04-06T10:45:44;9.80;54.40
33739;DHT22;20063;51.730;11.110;2023-04-06T10:48:18;9.70;57.40
33739;DHT22;20063;51.730;11.110;2023-04-06T10:50:47;9.60;63.50
33739;DHT22;20063;51.730;11.110;2023-04-06T10:53:21;9.70;57.40
33739;DHT22;20063;51.730;11.110;2023-04-06T10:55:47;9.80;58.50
33739;DHT22;20063;51.730;11.110;2023-04-06T10:58:13;9.90;59.30
33739;DHT22;20063;51.730;11.110;2023-04-06T11:00:47;10.00;63.20
33739;DHT22;20063;51.730;11.110;2023-04-06T11:03:13;10.10;60.10
33739;DHT22;20063;51.730;11.110;2023-04-06T11:05:46;10.10;57.70
33739;DHT22;20063;51.730;11.110;2023-04-06T11:08:29;10.20;57.60
33739;DHT22;20063;51.730;11.110;2023-04-06T11:11:12;10.20;58.10
33739;DHT22;20063;51.730;11.110;2023-04-06T11:13:45;10.20;64.00
33739;DHT22;20063;51.730;11.110;2023-04-06T11:16:15;10.40;60.80
33739;DHT22;20063;51.730;11.110;2023-04-06T11:18:57;10.40;58.10
33739;DHT22;20063;51.730;11.110;2023-04-06T11:21:45;10.40;58.90
33739;DHT22;20063;51.730;11.110;2023-04-06T11:24:25;10.40;57.50
33739;DHT22;20063;51.730;11.110;2023-04-06T11:26:56;10.60;55.80
33739;DHT22;20063;51.730;11.110;2023-04-06T11:29:23;10.70;57.00
33739;DHT22;20063;51.730;11.110;2023-04-06T11:31:53;10.70;59.10
33739;DHT22;20063;51.730;11.110;2023-04-06T11:34:24;10.70;59.80
33739;DHT22;20063;51.730;11.110;2023-04-06T11:37:01;10.70;57.10
33739;DHT22;20063;51.730;11.110;2023-04-06T11:39:28;10.80;54.50
33739;DHT22;20063;51.730;11.110;2023-04-06T11:41:58;10.80;59.70
33739;DHT22;20063;51.730;11.110;2023-04-06T11:44:43;10.80;56.90
33739;DHT22;20063;51.730;11.110;2023-04-06T11:47:12;10.80;56.90
33739;DHT22;20063;51.730;11.110;2023-04-06T11:49:39;10.80;55.80
33739;DHT22;20063;51.730;11.110;2023-04-06T11:52:21;10.80;58.80
33739;DHT22;20063;51.730;11.110;2023-04-06T11:54:48;10.80;58.70
33739;DHT22;20063;51.730;11.110;2023-04-06T11:57:14;10.90;58.80
33739;DHT22;20063;51.730;11.110;2023-04-06T11:59:40;11.00;64.00
33739;DHT22;20063;51.730;11.110;2023-04-06T12:02:06;11.10;60.20
33739;DHT22;20063;51.730;11.110;2023-04-06T12:04:32;11.20;55.90
33739;DHT22;20063;51.730;11.110;2023-04-06T12:06:57;11.20;56.10
33739;DHT22;20063;51.730;11.110;2023-04-06T12:09:23;11.30;56.10
33739;DHT22;20063;51.730;11.110;2023-04-06T12:11:50;11.40;56.80
33739;DHT22;20063;51.730;11.110;2023-04-06T12:14:16;11.40;57.70
33739;DHT22;20063;51.730;11.110;2023-04-06T12:16:42;11.40;57.40
33739;DHT22;20063;51.730;11.110;2023-04-06T12:19:07;11.30;56.10
33739;DHT22;20063;51.730;11.110;2023-04-06T12:21:34;11.20;57.80
33739;DHT22;20063;51.730;11.110;2023-04-06T12:24:02;11.20;61.90
33739;DHT22;20063;51.730;11.110;2023-04-06T12:26:28;11.20;59.10
33739;DHT22;20063;51.730;11.110;2023-04-06T12:28:53;11.20;61.00
33739;DHT22;20063;51.730;11.110;2023-04-06T12:31:21;11.30;56.40
33739;DHT22;20063;51.730;11.110;2023-04-06T12:33:48;11.40;58.30
33739;DHT22;20063;51.730;11.110;2023-04-06T12:36:15;11.50;52.50
33739;DHT22;20063;51.730;11.110;2023-04-06T12:38:41;11.60;55.90
33739;DHT22;20063;51.730;11.110;2023-04-06T12:41:07;11.60;57.30
33739;DHT22;20063;51.730;11.110;2023-04-06T12:43:33;11.70;58.10
33739;DHT22;20063;51.730;11.110;2023-04-06T12:45:58;11.70;57.00
33739;DHT22;20063;51.730;11.110;2023-04-06T12:48:25;11.70;55.60
33739;DHT22;20063;51.730;11.110;2023-04-06T12:50:58;11.80;56.80
33739;DHT22;20063;51.730;11.110;2023-04-06T12:53:24;11.70;56.40
33739;DHT22;20063;51.730;11.110;2023-04-06T12:55:51;11.70;54.70
33739;DHT22;20063;51.730;11.110;2023-04-06T12:58:17;11.70;57.60
33739;DHT22;20063;51.730;11.110;2023-04-06T13:00:43;11.60;56.10
33739;DHT22;20063;51.730;11.110;2023-04-06T13:03:10;11.60;53.70
33739;DHT22;20063;51.730;11.110;2023-04-06T13:05:35;11.60;54.50
33739;DHT22;20063;51.730;11.110;2023-04-06T13:08:01;11.60;52.20
33739;DHT22;20063;51.730;11.110;2023-04-06T13:10:26;11.80;51.90
33739;DHT22;20063;51.730;11.110;2023-04-06T13:12:53;11.90;52.00
33739;DHT22;20063;51.730;11.110;2023-04-06T13:15:18;12.00;48.10
33739;DHT22;20063;51.730;11.110;2023-04-06T13:17:45;12.10;49.90
33739;DHT22;20063;51.730;11.110;2023-04-06T13:20:10;12.10;50.90
33739;DHT22;20063;51.730;11.110;2023-04-06T13:22:36;12.10;51.50
33739;DHT22;20063;51.730;11.110;2023-04-06T13:25:02;12.10;51.30
33739;DHT22;20063;51.730;11.110;2023-04-06T13:27:27;12.30;48.20
33739;DHT22;20063;51.730;11.110;2023-04-06T13:29:54;12.40;49.50
33739;DHT22;20063;51.730;11.110;2023-04-06T13:32:20;12.40;46.50
33739;DHT22;20063;51.730;11.110;2023-04-06T13:34:47;12.40;48.00
33739;DHT22;20063;51.730;11.110;2023-04-06T13:37:14;12.50;46.70
33739;DHT22;20063;51.730;11.110;2023-04-06T13:39:41;12.60;48.10
33739;DHT22;20063;51.730;11.110;2023-04-06T13:42:06;12.60;45.00
33739;DHT22;20063;51.730;11.110;2023-04-06T13:44:32;12.60;45.70
33739;DHT22;20063;51.730;11.110;2023-04-06T13:46:58;12.50;48.90
33739;DHT22;20063;51.730;11.110;2023-04-06T13:49:23;12.40;49.90
33739;DHT22;20063;51.730;11.110;2023-04-06T13:51:52;12.50;46.40
33739;DHT22;20063;51.730;11.110;2023-04-06T13:54:17;12.60;48.60
33739;DHT22;20063;51.730;11.110;2023-04-06T13:56:46;12.70;48.20
33739;DHT22;20063;51.730;11.110;2023-04-06T13:59:12;12.70;49.60
33739;DHT22;20063;51.730;11.110;2023-04-06T14:01:37;12.70;48.70
33739;DHT22;20063;51.730;11.110;2023-04-06T14:04:03;12.50;49.40
33739;DHT22;20063;51.730;11.110;2023-04-06T14:06:28;12.50;49.30
33739;DHT22;20063;51.730;11.110;2023-04-06T14:08:57;12.60;51.30
33739;DHT22;20063;51.730;11.110;2023-04-06T14:11:23;12.60;50.00
33739;DHT22;20063;51.730;11.110;2023-04-06T14:13:48;12.70;47.50
33739;DHT22;20063;51.730;11.110;2023-04-06T14:16:14;12.70;47.70
33739;DHT22;20063;51.730;11.110;2023-04-06T14:18:40;12.80;47.90
33739;DHT22;20063;51.730;11.110;2023-04-06T14:21:06;13.00;48.10
33739;DHT22;20063;51.730;11.110;2023-04-06T14:23:31;13.00;49.40
33739;DHT22;20063;51.730;11.110;2023-04-06T14:26:05;12.90;49.40
33739;DHT22;20063;51.730;11.110;2023-04-06T14:28:32;12.90;48.20
33739;DHT22;20063;51.730;11.110;2023-04-06T14:31:00;13.00;49.00
33739;DHT22;20063;51.730;11.110;2023-04-06T14:33:30;13.10;48.00
33739;DHT22;20063;51.730;11.110;2023-04-06T14:35:55;13.10;49.80
33739;DHT22;20063;51.730;11.110;2023-04-06T14:38:21;13.00;48.90
33739;DHT22;20063;51.730;11.110;2023-04-06T14:40:47;13.10;47.30
33739;DHT22;20063;51.730;11.110;2023-04-06T14:43:13;13.10;47.90
33739;DHT22;20063;51.730;11.110;2023-04-06T14:45:38;13.10;47.30
33739;DHT22;20063;51.730;11.110;2023-04-06T14:48:05;13.30;45.10
33739;DHT22;20063;51.730;11.110;2023-04-06T14:50:32;13.30;45.90
33739;DHT22;20063;51.730;11.110;2023-04-06T14:52:58;13.30;46.80
33739;DHT22;20063;51.730;11.110;2023-04-06T14:55:25;13.40;46.30
33739;DHT22;20063;51.730;11.110;2023-04-06T14:57:51;13.40;45.30
33739;DHT22;20063;51.730;11.110;2023-04-06T15:00:17;13.40;43.50
33739;DHT22;20063;51.730;11.110;2023-04-06T15:02:43;13.30;46.60
33739;DHT22;20063;51.730;11.110;2023-04-06T15:05:08;13.20;45.90
33739;DHT22;20063;51.730;11.110;2023-04-06T15:07:37;13.10;47.00
33739;DHT22;20063;51.730;11.110;2023-04-06T15:10:04;13.00;47.40
33739;DHT22;20063;51.730;11.110;2023-04-06T15:12:30;13.10;48.50
33739;DHT22;20063;51.730;11.110;2023-04-06T15:14:55;13.10;48.30
33739;DHT22;20063;51.730;11.110;2023-04-06T15:17:21;13.00;46.80
33739;DHT22;20063;51.730;11.110;2023-04-06T15:19:47;13.00;47.00
33739;DHT22;20063;51.730;11.110;2023-04-06T15:22:15;13.00;46.60
33739;DHT22;20063;51.730;11.110;2023-04-06T15:24:40;13.10;45.70
33739;DHT22;20063;51.730;11.110;2023-04-06T15:27:06;13.10;45.50
33739;DHT22;20063;51.730;11.110;2023-04-06T15:29:31;13.10;45.60
33739;DHT22;20063;51.730;11.110;2023-04-06T15:31:57;13.10;46.20
33739;DHT22;20063;51.730;11.110;2023-04-06T15:34:23;13.10;49.00